Flight Track Log - Related Links

Times and Time Zones

All times are in EDT time to prevent confusion due to time zone crossing. See the SKW5516 flight status page for this flight to view local times or setup timezone preferences in your user account.

Time Position Orientation Groundspeed Altitude Reporting Facility
EDT Latitude Longitude Course Direction KTS MPH feet Rate Location/Type
Sat 09:02:59 AM 39.2536 -106.8761 90° East 188 216 9,100  Level Denver Center
Sat 09:04:00 AM 39.2797 -106.9394 298° West 216 249 11,700 2,628 Climbing Denver Center
Sat 09:05:00 AM 39.4070 -106.7868 101° East  Level FlightAware Approximate
Sat 09:05:00 AM 39.3206 -106.9900 316° Northwest 236 272 14,400  Level Denver Center
Sat 09:06:00 AM 39.3876 -106.6609 101° East  Level FlightAware Approximate
Sat 09:06:01 AM 39.3458 -106.9036 69° East 267 307 16,100  Level Denver Center
Sat 09:07:00 AM 39.3639 -106.5363 104° East  Level FlightAware Approximate
Sat 09:07:02 AM 39.3528 -106.7900 85° East 318 366 17,400  Level Denver Center
Sat 09:08:00 AM 39.3333 -106.4166 90° East  Level FlightAware Approximate
Sat 09:08:02 AM 39.3528 -106.6617 90° East 353 406 19,100  Level Denver Center
Sat 09:09:03 AM 39.3528 -106.5153 90° East 374 430 20,700 942 Climbing Denver Center
Sat 09:10:03 AM 39.3569 -106.3681 88° East 425 489 21,000 149 Climbing Denver Center
Sat 09:11:04 AM 39.3644 -106.2114 86° East 453 521 21,000 -99 Level Denver Center
Sat 09:12:04 AM 39.3731 -106.0378 86° East 456 525 20,800 -595 Descending Denver Center
Sat 09:13:05 AM 39.3778 -105.8739 88° East 458 527 19,800 -885 Descending Denver Center
Sat 09:14:06 AM 39.3861 -105.7183 86° East 441 507 19,000 -397 Descending Denver Center
Sat 09:15:06 AM 39.3922 -105.5678 87° East 421 484 19,000 -149 Level Denver Center
Sat 09:16:07 AM 39.3994 -105.4064 87° East 413 475 18,700 -1,140 Descending Denver Center
Sat 09:17:07 AM 39.4072 -105.2519 86° East 427 491 16,700 -1,983 Descending Denver Center
Sat 09:18:08 AM 39.4125 -105.1050 87° East 413 475 14,700 -1,785 Descending Denver Center
Sat 09:19:08 AM 39.4172 -104.9783 87° East 351 404 13,100 -1,041 Descending Denver Center
Sat 09:20:09 AM 39.4244 -104.8733 85° East 288 331 12,600 -984 Descending Denver Center
Sat 09:21:10 AM 39.4522 -104.7942 66° East 246 283 11,100 -1,289 Descending Denver Center
Sat 09:22:10 AM 39.4942 -104.7275 51° Northeast 239 275 10,000 -694 Descending Denver Center
Sat 09:23:11 AM 39.5544 -104.6817 30° Northeast 231 266 9,700 -298 Descending Denver Center
Sat 09:24:11 AM 39.6092 -104.6472 26° Northeast 222 255 9,400 -397 Descending Denver Center
Sat 09:25:12 AM 39.6553 -104.6444 North 215 247 8,900 -492 Descending Denver Center

Login

Don't have an account? Register now (free) for customized features, flight alerts, and more!